Latest Weather Observations for Tunnack

IDT60801

Issued at 4:05 pm EST Sunday 21 September 2014 (issued every 30 minutes, with the page automatically refreshed every 10 minutes)

About weather observations | Map of weather stations | Latest weather observations for TAS | Other Formats
Station Details ID: 094195 Name: TUNNACK FIRE STATION Lat: -42.45 Lon: 147.46 Height: 461.5 m
Data from the previous 72 hours. | See also: Recent months at Tunnack
Date/Time
EST
Temp
°C
App
Temp
°C
Dew
Point
Rel
Hum
%
Delta-T
°C
Wind Press
QNH
hPa
Press
MSL
hPa
Rain
since 9 am
mm
Dir
 
Spd
km/h
Gust
km/h
Spd
kts
Gust
kts
21/04:00pm 15.1 10.3 4.8 50 4.9 W 19 33 10 18 1026.4 1027.1 0.0
21/03:30pm 15.6 10.4 3.7 45 5.6 W 20 28 11 15 1026.3 1027.0 0.0
21/03:00pm 15.4 10.3 4.2 47 5.3 W 20 35 11 19 1026.2 1026.9 0.0
21/02:30pm 15.6 10.0 5.5 51 4.9 WNW 24 35 13 19 1026.2 1026.9 0.0
21/02:00pm 15.3 10.2 4.1 47 5.3 W 20 32 11 17 1026.2 1026.9 0.0
21/01:30pm 15.4 10.9 4.2 47 5.3 WNW 17 24 9 13 1026.3 1027.0 0.0
21/01:00pm 15.2 10.1 4.0 47 5.3 W 20 32 11 17 1026.2 1026.9 0.0
21/12:30pm 14.8 9.9 4.2 49 5.0 W 19 26 10 14 1026.4 1027.1 0.0
21/12:00pm 14.5 9.3 5.3 54 4.4 WNW 22 35 12 19 1026.4 1027.1 0.0
21/11:30am 13.7 8.0 6.6 62 3.5 WNW 26 39 14 21 1026.6 1027.3 0.0
21/11:00am 13.3 8.3 6.6 64 3.3 WNW 22 32 12 17 1026.8 1027.5 0.0
21/10:30am 11.4 6.7 5.9 69 2.6 W 20 32 11 17 1027.0 1027.7 0.0
21/10:00am 11.5 6.5 6.4 71 2.5 W 22 33 12 18 1027.0 1027.7 0.0
21/09:30am 10.6 5.5 5.8 72 2.3 W 22 32 12 17 1027.0 1027.7 0.0
21/09:00am 10.1 6.0 6.3 77 1.8 W 17 26 9 14 1026.8 1027.5 0.0
21/08:30am 10.5 5.4 5.9 73 2.2 W 22 33 12 18 1026.3 1027.0 0.0
21/08:00am 9.5 5.4 6.0 79 1.6 W 17 24 9 13 1026.2 1026.9 0.0
21/07:30am 7.4 5.1 4.7 83 1.2 NW 6 15 3 8 1025.9 1026.7 0.0
21/07:00am 7.3 3.6 4.3 81 1.3 W 13 17 7 9 1025.6 1026.3 0.0
21/06:30am 6.9 3.5 3.9 81 1.3 W 11 15 6 8 1025.5 1026.2 0.0
21/06:00am 6.9 3.8 3.5 79 1.5 WSW 9 17 5 9 1025.3 1026.0 0.0
21/05:30am 6.8 2.9 3.4 79 1.5 WSW 13 20 7 11 1025.0 1025.7 0.0
21/05:00am 6.7 2.4 3.1 78 1.5 W 15 20 8 11 1024.7 1025.4 0.0
21/04:30am 6.2 1.5 3.0 80 1.4 W 17 20 9 11 1024.7 1025.4 0.0
21/04:00am 6.0 0.9 3.0 81 1.3 W 19 26 10 14 1024.6 1025.3 0.0
21/03:30am 5.1 0.6 2.3 82 1.2 W 15 20 8 11 1024.8 1025.5 0.0
21/03:00am 5.0 0.9 2.0 81 1.2 W 13 17 7 9 1025.0 1025.7 0.0
21/02:30am 5.3 1.6 2.5 82 1.2 W 11 17 6 9 1025.4 1026.1 0.0
21/02:00am 5.4 1.4 2.9 84 1.1 WSW 13 20 7 11 1025.6 1026.3 0.0
21/01:30am 5.2 0.8 2.7 84 1.1 W 15 20 8 11 1025.4 1026.1 0.0
21/01:00am 4.6 0.9 2.6 87 0.8 W 11 17 6 9 1025.5 1026.2 0.0
21/12:30am 5.6 1.6 2.9 83 1.1 W 13 24 7 13 1025.3 1026.0 0.0
21/12:00am 6.0 2.1 3.5 84 1.1 WSW 13 20 7 11 1025.7 1026.4 0.0
 
Date/Time
EST
Temp
°C
App
Temp
°C
Dew
Point
Rel
Hum
%
Delta-T
°C
Wind Press
QNH
hPa
Press
MSL
hPa
Rain
since 9 am
mm
Dir
 
Spd
km/h
Gust
km/h
Spd
kts
Gust
kts
20/11:30pm 6.3 1.7 3.8 84 1.1 W 17 26 9 14 1025.9 1026.7 0.0
20/11:00pm 6.0 2.3 4.2 88 0.8 WSW 13 24 7 13 1026.3 1027.0 0.0
20/10:30pm 4.8 1.2 2.8 87 0.8 WNW 11 17 6 9 1025.9 1026.7 0.0
20/10:00pm 5.4 1.8 3.1 85 1.0 W 11 15 6 8 1025.7 1026.4 0.0
20/09:30pm 5.3 1.6 2.5 82 1.2 W 11 20 6 11 1026.0 1026.8 0.0
20/09:00pm 5.0 1.6 2.0 81 1.2 WSW 9 13 5 7 1025.7 1026.4 0.0
20/08:30pm 5.8 1.4 2.6 80 1.4 W 15 22 8 12 1025.5 1026.2 0.0
20/08:00pm 6.5 2.1 2.9 78 1.5 SW 15 22 8 12 1025.6 1026.3 0.0
20/07:30pm 6.6 2.5 2.5 75 1.7 WSW 13 19 7 10 1025.3 1026.0 0.0
20/07:00pm 7.4 3.0 2.7 72 2.0 W 15 20 8 11 1024.7 1025.4 0.0
20/06:30pm 7.8 2.1 2.9 71 2.1 W 22 33 12 18 1024.3 1025.0 0.0
20/06:00pm 8.3 3.6 3.2 70 2.2 W 17 20 9 11 1024.3 1025.0 0.0
20/05:30pm 9.0 3.9 3.2 67 2.6 WSW 19 35 10 19 1024.5 1025.2 0.0
20/05:00pm 10.2 5.7 4.1 66 2.8 WSW 17 28 9 15 1023.6 1024.3 0.0
20/04:30pm 10.4 5.3 4.1 65 2.9 WSW 20 33 11 18 1023.7 1024.4 0.0
20/04:00pm 11.6 5.4 4.1 60 3.4 WSW 26 37 14 20 1023.5 1024.2 0.0
20/03:30pm 12.5 6.9 3.7 55 4.0 W 22 37 12 20 1023.3 1024.0 0.0
20/03:00pm 12.9 6.2 3.8 54 4.2 W 28 41 15 22 1023.1 1023.8 0.0
20/02:30pm 13.1 7.2 4.0 54 4.2 W 24 35 13 19 1023.0 1023.7 0.0
20/02:00pm 11.9 6.1 4.4 60 3.5 WSW 24 37 13 20 1022.9 1023.6 0.0
20/01:30pm 11.7 6.9 4.4 61 3.4 WSW 19 35 10 19 1022.8 1023.5 0.0
20/01:00pm 13.4 8.3 5.8 60 3.7 WSW 22 35 12 19 1022.7 1023.4 0.0
20/12:30pm 12.5 7.1 4.5 58 3.7 W 22 33 12 18 1022.9 1023.6 0.0
20/12:00pm 12.4 7.1 5.1 61 3.4 WSW 22 33 12 18 1022.8 1023.5 0.0
20/11:30am 11.8 7.4 4.8 62 3.3 WSW 17 24 9 13 1022.9 1023.6 0.0
20/11:00am 12.5 7.8 5.9 64 3.2 W 20 33 11 18 1022.8 1023.5 0.0
20/10:30am 12.3 7.6 6.1 66 3.0 W 20 33 11 18 1022.9 1023.6 0.0
20/10:00am 11.3 6.5 5.8 69 2.6 W 20 33 11 18 1023.1 1023.8 0.0
20/09:30am 10.7 5.2 5.9 72 2.3 WNW 24 33 13 18 1023.0 1023.7 0.0
20/09:00am 9.7 5.3 4.9 72 2.2 W 17 28 9 15 1023.0 1023.7 0.0
20/08:30am 9.7 4.7 4.5 70 2.4 W 20 30 11 16 1022.7 1023.4 0.0
20/08:00am 9.1 5.5 5.1 76 1.8 W 13 20 7 11 1022.6 1023.3 0.0
20/07:30am 7.6 5.1 4.6 81 1.4 NW 7 11 4 6 1022.5 1023.2 0.0
20/07:00am 7.6 4.3 4.7 82 1.3 WSW 11 15 6 8 1022.2 1022.8 0.0
20/06:30am 7.4 3.0 4.5 82 1.3 SW 17 24 9 13 1021.9 1022.5 0.0
20/06:00am 5.7 1.9 3.7 87 0.9 SW 13 20 7 11 1021.3 1022.0 0.0
20/05:30am 6.1 1.9 3.8 85 1.0 SW 15 24 8 13 1020.8 1021.5 0.0
20/05:00am 6.3 2.1 3.8 84 1.1 SSW 15 20 8 11 1020.5 1021.2 0.0
20/04:30am 7.0 1.8 3.8 80 1.4 WSW 20 33 11 18 1019.8 1020.4 0.0
20/04:00am 7.0 1.1 4.0 81 1.3 WSW 24 39 13 21 1019.3 1019.9 0.0
20/03:30am 6.9 1.1 4.2 83 1.2 W 24 35 13 19 1019.3 1019.9 0.0
20/03:00am 7.1 0.9 4.4 83 1.2 W 26 39 14 21 1019.1 1019.8 0.0
20/02:30am 7.1 2.6 4.1 81 1.3 W 17 32 9 17 1019.4 1020.0 0.0
20/02:00am 6.9 2.7 3.9 81 1.3 W 15 24 8 13 1019.3 1019.9 0.0
20/01:30am 6.8 2.2 3.6 80 1.4 WSW 17 22 9 12 1019.5 1020.1 0.0
20/01:00am 6.1 2.7 3.9 86 1.0 WSW 11 19 6 10 1019.5 1020.1 0.0
20/12:30am 6.8 3.1 4.6 86 1.0 W 13 20 7 11 1019.5 1020.1 0.0
20/12:00am 7.0 2.6 4.7 85 1.0 W 17 22 9 12 1019.1 1019.8 0.0
 
Date/Time
EST
Temp
°C
App
Temp
°C
Dew
Point
Rel
Hum
%
Delta-T
°C
Wind Press
QNH
hPa
Press
MSL
hPa
Rain
since 9 am
mm
Dir
 
Spd
km/h
Gust
km/h
Spd
kts
Gust
kts
19/11:30pm 7.2 3.9 4.7 84 1.1 WSW 11 15 6 8 1019.1 1019.8 0.0
19/11:00pm 7.4 3.8 5.0 85 1.1 WSW 13 20 7 11 1019.0 1019.7 0.0
19/10:30pm 7.3 3.6 4.6 83 1.2 SW 13 20 7 11 1018.9 1019.6 0.0
19/10:00pm 7.2 2.8 4.5 83 1.2 WSW 17 24 9 13 1018.5 1019.1 0.0
19/09:30pm 7.3 2.8 4.1 80 1.4 WSW 17 26 9 14 1018.5 1019.1 0.0
19/09:00pm 7.9 3.1 4.5 79 1.5 W 19 30 10 16 1018.4 1019.0 0.0
19/08:30pm 8.1 3.6 4.1 76 1.8 WSW 17 26 9 14 1018.3 1018.9 0.0
19/08:00pm 8.0 3.0 3.8 75 1.9 WSW 19 32 10 17 1017.9 1018.5 0.0
19/07:30pm 8.3 3.3 3.6 72 2.1 WSW 19 30 10 16 1017.7 1018.3 0.0
19/07:00pm 8.1 3.0 3.2 71 2.1 WSW 19 30 10 16 1017.3 1017.9 0.0
19/06:30pm 7.9 3.8 2.2 67 2.4 WSW 13 22 7 12 1016.8 1017.5 0.0
19/06:00pm 8.9 4.8 2.0 62 3.0 SW 13 26 7 14 1016.7 1017.3 0.0
19/05:30pm 9.3 4.4 1.9 60 3.2 SW 17 30 9 16 1016.7 1017.3 0.0
19/05:00pm 10.2 3.9 1.3 54 3.8 SW 24 46 13 25 1016.3 1016.9 0.0
19/04:56pm 10.2 3.1 1.1 53 3.9 SW 28 52 15 28 1016.3 1016.9 0.0
19/04:30pm 11.1 4.3 1.1 50 4.3 WSW 26 43 14 23 1016.0 1016.6 0.0
19/04:00pm 10.9 3.3 0.6 49 4.4 WSW 30 65 16 35 1015.6 1016.2 0.0
19/03:30pm 11.7 3.8 1.1 48 4.6 WSW 32 54 17 29 1015.3 1015.9 0.0
19/03:18pm 12.3 5.2 1.6 48 4.7 WSW 28 46 15 25 1015.3 1015.9 0.0
19/03:00pm 12.3 7.0 1.6 48 4.7 SW 19 35 10 19 1015.2 1015.8 0.0
19/02:30pm 12.6 5.8 3.0 52 4.4 WSW 28 48 15 26 1015.3 1015.9 0.0
19/02:14pm 12.2 5.2 1.8 49 4.6 W 28 46 15 25 1015.3 1015.9 0.0
19/02:00pm 11.2 5.0 2.0 53 4.0 WSW 24 46 13 25 1015.3 1015.9 0.0
19/01:56pm 11.5 4.6 2.8 55 3.9 WSW 28 46 15 25 1015.3 1015.9 0.0
19/01:30pm 11.2 4.4 3.0 57 3.7 W 28 44 15 24 1015.2 1015.8 0.0
19/01:16pm 10.8 3.8 2.1 55 3.8 WSW 28 50 15 27 1015.3 1015.9 0.0
19/01:00pm 11.2 4.6 2.0 53 4.0 WSW 26 43 14 23 1015.3 1015.9 0.0
19/12:30pm 12.0 5.8 2.2 51 4.3 WSW 24 43 13 23 1015.4 1016.0 0.0
19/12:00pm 10.5 3.5 2.1 56 3.7 WSW 28 43 15 23 1015.7 1016.3 0.0
19/11:30am 10.8 3.2 2.9 58 3.5 WSW 32 52 17 28 1015.6 1016.2 0.0
19/11:02am 11.6 4.9 3.9 59 3.5 WSW 28 46 15 25 1015.2 1015.8 0.0
19/11:00am 11.5 5.2 3.8 59 3.5 WSW 26 46 14 25 1015.3 1015.9 0.0
19/10:30am 10.4 5.0 4.3 66 2.8 WSW 22 35 12 19 1015.4 1016.0 0.0
19/10:00am 10.0 3.5 4.8 70 2.4 WSW 28 44 15 24 1015.3 1015.9 0.0
19/09:30am 9.6 2.7 4.6 71 2.3 WSW 30 43 16 23 1015.2 1015.8 0.0
19/09:00am 10.1 3.7 5.1 71 2.3 WSW 28 46 15 25 1015.0 1015.6 0.2
19/08:58am 10.1 3.6 4.7 69 2.5 WSW 28 46 15 25 1015.0 1015.6 0.2
19/08:30am 10.0 3.6 5.0 71 2.3 WSW 28 39 15 21 1015.0 1015.6 0.2
19/08:00am 8.9 3.2 4.7 75 1.9 WSW 24 39 13 21 1014.9 1015.4 0.2
19/07:30am 7.8 2.0 4.4 79 1.5 WSW 24 35 13 19 1014.8 1015.3 0.2
19/07:00am 7.6 2.2 4.6 81 1.4 WSW 22 33 12 18 1014.4 1015.0 0.2
19/06:30am 7.4 1.6 4.2 80 1.4 W 24 43 13 23 1013.8 1014.4 0.2
19/06:00am 7.5 1.3 4.1 79 1.5 WSW 26 39 14 21 1013.6 1014.2 0.2
19/05:31am 7.5 0.8 3.7 77 1.7 WSW 28 46 15 25 1013.1 1013.6 0.2
19/05:30am 7.5 0.8 3.7 77 1.7 WSW 28 43 15 23 1013.1 1013.6 0.2
19/05:00am 7.4 0.3 3.5 76 1.7 WSW 30 44 16 24 1013.0 1013.5 0.2
19/04:33am 7.2 -0.4 3.1 75 1.8 WSW 32 50 17 27 1012.7 1013.2 0.2
19/04:30am 7.2 -0.4 2.9 74 1.9 WSW 32 48 17 26 1012.7 1013.2 0.2
19/04:28am 7.2 -0.6 2.9 74 1.9 WSW 33 52 18 28 1012.8 1013.3 0.2
19/04:00am 7.4 -0.7 3.1 74 1.9 W 35 48 19 26 1012.8 1013.3 0.2
19/03:41am 7.5 0.0 3.7 77 1.7 WSW 32 50 17 27 1012.8 1013.3 0.2
19/03:30am 7.5 0.1 3.9 78 1.6 WSW 32 46 17 25 1012.9 1013.4 0.2
19/03:08am 7.1 0.4 3.7 79 1.5 WSW 28 50 15 27 1012.7 1013.2 0.2
19/03:00am 6.7 0.0 3.7 81 1.3 WSW 28 43 15 23 1012.6 1013.1 0.2
19/02:30am 6.8 0.9 3.8 81 1.3 WSW 24 39 13 21 1012.6 1013.1 0.2
19/02:00am 6.4 1.2 3.6 82 1.2 W 20 35 11 19 1012.9 1013.4 0.2
19/01:30am 6.1 1.1 3.4 83 1.2 WSW 19 33 10 18 1013.3 1013.9 0.2
19/01:00am 5.8 0.5 3.0 82 1.2 WSW 20 30 11 16 1013.3 1013.9 0.2
19/12:30am 6.0 -0.1 2.6 79 1.4 W 24 35 13 19 1013.3 1013.9 0.2
19/12:00am 5.6 -0.6 2.1 78 1.5 W 24 35 13 19 1013.5 1014.1 0.2
 
Date/Time
EST
Temp
°C
App
Temp
°C
Dew
Point
Rel
Hum
%
Delta-T
°C
Wind Press
QNH
hPa
Press
MSL
hPa
Rain
since 9 am
mm
Dir
 
Spd
km/h
Gust
km/h
Spd
kts
Gust
kts
18/11:30pm 5.4 -0.5 1.7 77 1.5 W 22 35 12 19 1013.8 1014.4 0.2
18/11:00pm 5.5 -0.4 1.4 75 1.7 WSW 22 39 12 21 1014.0 1014.6 0.2
18/10:30pm 5.5 -0.4 1.4 75 1.7 WSW 22 35 12 19 1014.3 1014.9 0.2
18/10:00pm 5.7 -0.7 1.2 73 1.8 WSW 24 33 13 18 1014.7 1015.2 0.2
18/09:30pm 6.1 -1.7 1.4 72 1.9 WSW 32 54 17 29 1014.7 1015.2 0.2
18/09:04pm 6.1 -1.0 1.2 71 2.0 WSW 28 50 15 27 1014.5 1015.1 0.2
18/09:00pm 6.0 -0.8 1.0 70 2.0 WSW 26 43 14 23 1014.5 1015.1 0.2
18/08:30pm 6.1 -1.1 0.4 67 2.3 WSW 28 41 15 22 1014.7 1015.2 0.2
18/08:00pm 6.2 -1.5 -0.1 64 2.5 WSW 30 48 16 26 1014.7 1015.2 0.2
18/07:34pm 6.2 -1.1 -0.3 63 2.6 WSW 28 46 15 25 1014.8 1015.3 0.2
18/07:30pm 6.1 -0.5 -0.4 63 2.6 WSW 24 41 13 22 1014.8 1015.3 0.2
18/07:00pm 6.3 -0.3 -0.2 63 2.6 WSW 24 39 13 21 1014.8 1015.3 0.2
18/06:41pm 6.4 -0.9 -0.3 62 2.6 WSW 28 50 15 27 1014.8 1015.3 0.2
18/06:30pm 6.4 -0.2 -0.1 63 2.6 WSW 24 44 13 24 1014.8 1015.3 0.2
18/06:00pm 6.5 0.4 0.2 64 2.5 WSW 22 35 12 19 1014.5 1015.1 0.2
18/05:30pm 6.9 -0.2 1.4 68 2.3 WSW 28 41 15 22 1014.3 1014.9 0.2
18/05:00pm 7.5 0.9 2.2 69 2.3 WSW 26 43 14 23 1013.9 1014.5 0.2
18/04:47pm 7.1 -0.7 1.8 69 2.2 W 32 54 17 29 1013.8 1014.4 0.2
18/04:30pm 7.8 0.1 2.5 69 2.3 WSW 32 48 17 26 1013.7 1014.3 0.2

Other Formats:

Comma delimited format used in spreadsheet applications
http://www.bom.gov.au/fwo/IDT60801/IDT60801.94960.axf

JavaScript Object Notation format (JSON) in row-major order
http://www.bom.gov.au/fwo/IDT60801/IDT60801.94960.json